Time;durP1;ratioP1;P1;durP2;ratioP2;P2;SDS_P1;SDS_P2;PMS_P1;PMS_P2;Temp;Humidity;BMP_temperature;BMP_pressure;BME280_temperature;BME280_humidity;BME280_pressure;Samples;Min_cycle;Max_cycle;Signal;HPM_P1;HPM_P2
2022/08/01 00:01:38;;;;;;;13.35;11.68;;;;;;;;;;10079823;28;20063;-66
2022/08/01 00:06:34;;;;;;;15.68;11.45;;;;;;;;;;10060496;28;20477;-67
2022/08/01 00:11:30;;;;;;;11.10;9.90;;;;;;;;;;10040505;28;20439;-65
2022/08/01 00:16:27;;;;;;;11.55;8.30;;;;;;;;;;10041480;28;20131;-66
2022/08/01 00:21:23;;;;;;;12.52;9.15;;;;;;;;;;10040279;28;20052;-65
2022/08/01 00:26:19;;;;;;;12.07;9.65;;;;;;;;;;10066570;28;20078;-66
2022/08/01 00:31:16;;;;;;;11.10;9.65;;;;;;;;;;10077925;28;20812;-66
2022/08/01 00:36:12;;;;;;;10.07;8.43;;;;;;;;;;10068228;28;20589;-66
2022/08/01 00:41:08;;;;;;;12.85;9.60;;;;;;;;;;10076684;28;20079;-66
2022/08/01 00:46:05;;;;;;;15.15;10.82;;;;;;;;;;10063000;28;20510;-66
2022/08/01 00:51:02;;;;;;;12.63;9.23;;;;;;;;;;10055671;28;20047;-66
2022/08/01 00:55:59;;;;;;;13.32;10.05;;;;;;;;;;10061793;28;20063;-67
2022/08/01 01:00:55;;;;;;;11.48;8.85;;;;;;;;;;10044629;28;20477;-66
2022/08/01 01:06:14;;;;;;;12.52;9.43;;;;;;;;;;11087615;23;20039;-68
2022/08/01 01:11:16;;;;;;;10.68;7.40;;;;;;;;;;10070273;28;20075;-68
2022/08/01 01:16:13;;;;;;;;;;;;;;;;;;10065292;28;20718;-68
2022/08/01 01:21:18;;;;;;;11.80;7.78;;;;;;;;;;10037750;28;19923;-68
2022/08/01 01:26:22;;;;;;;11.23;8.45;;;;;;;;;;10046677;28;20054;-68
2022/08/01 01:31:19;;;;;;;11.15;8.02;;;;;;;;;;10037195;28;20079;-68
2022/08/01 01:36:18;;;;;;;11.63;8.27;;;;;;;;;;10043840;28;20047;-68
2022/08/01 01:41:16;;;;;;;15.80;9.85;;;;;;;;;;10036170;28;20140;-69
2022/08/01 01:46:16;;;;;;;10.45;7.45;;;;;;;;;;10061969;28;20569;-68
2022/08/01 01:51:13;;;;;;;13.82;10.10;;;;;;;;;;10075438;28;20058;-68
2022/08/01 01:56:11;;;;;;;12.05;9.38;;;;;;;;;;10061006;28;20059;-68
2022/08/01 02:01:08;;;;;;;14.90;9.55;;;;;;;;;;10074634;28;20074;-68
2022/08/01 02:06:13;;;;;;;13.35;9.80;;;;;;;;;;10060262;28;20086;-68
2022/08/01 02:11:18;;;;;;;14.07;9.80;;;;;;;;;;10068839;28;20548;-69
2022/08/01 02:16:16;;;;;;;13.07;9.07;;;;;;;;;;10061233;28;20505;-68
2022/08/01 02:21:16;;;;;;;10.85;8.13;;;;;;;;;;10059069;28;20071;-68
2022/08/01 02:26:14;;;;;;;12.10;8.50;;;;;;;;;;10065636;28;20054;-68
2022/08/01 02:31:14;;;;;;;14.07;8.85;;;;;;;;;;10068280;28;20047;-68
2022/08/01 02:36:11;;;;;;;10.52;7.00;;;;;;;;;;10064966;28;20071;-69
2022/08/01 02:41:28;;;;;;;9.73;6.30;;;;;;;;;;10036280;28;20054;-68
2022/08/01 02:46:54;;;;;;;8.77;6.13;;;;;;;;;;10035770;28;20047;-68
2022/08/01 02:51:50;;;;;;;11.75;6.63;;;;;;;;;;10030831;28;20449;-69
2022/08/01 02:56:47;;;;;;;13.82;6.00;;;;;;;;;;10064796;28;20424;-68
2022/08/01 03:01:44;;;;;;;11.65;6.90;;;;;;;;;;10074552;28;20079;-68
2022/08/01 03:06:41;;;;;;;9.52;6.25;;;;;;;;;;10065855;28;20047;-68
2022/08/01 03:11:42;;;;;;;8.63;6.18;;;;;;;;;;10069073;28;20046;-68
2022/08/01 03:16:39;;;;;;;12.57;6.93;;;;;;;;;;10056272;28;20055;-68
2022/08/01 03:21:37;;;;;;;8.85;6.25;;;;;;;;;;10043609;28;20138;-67
2022/08/01 03:26:34;;;;;;;9.90;5.53;;;;;;;;;;10069250;28;20076;-68
2022/08/01 03:31:31;;;;;;;10.20;5.40;;;;;;;;;;10061394;28;20115;-68
2022/08/01 03:36:28;;;;;;;7.40;5.70;;;;;;;;;;10068617;28;20458;-68
2022/08/01 03:41:26;;;;;;;14.35;7.90;;;;;;;;;;10047928;28;20051;-68
2022/08/01 03:46:28;;;;;;;7.45;6.00;;;;;;;;;;10067413;28;20059;-68
2022/08/01 03:51:25;;;;;;;;;;;;;;;;;;10081235;28;20074;-68
2022/08/01 03:56:22;;;;;;;7.45;4.30;;;;;;;;;;10071724;28;19927;-68
2022/08/01 04:01:19;;;;;;;5.43;3.45;;;;;;;;;;10041099;28;20093;-68
2022/08/01 04:06:17;;;;;;;5.82;3.42;;;;;;;;;;10065818;28;20055;-68
2022/08/01 04:11:13;;;;;;;6.80;4.30;;;;;;;;;;10080048;28;20126;-68
2022/08/01 04:16:09;;;;;;;7.18;4.45;;;;;;;;;;10078725;28;20167;-68
2022/08/01 04:21:05;;;;;;;7.88;4.05;;;;;;;;;;10072746;28;20044;-68
2022/08/01 04:26:03;;;;;;;6.47;4.22;;;;;;;;;;10063411;28;20058;-68
2022/08/01 04:31:00;;;;;;;7.88;4.20;;;;;;;;;;10059405;28;20498;-68
2022/08/01 04:35:59;;;;;;;7.93;4.63;;;;;;;;;;10062498;28;20073;-68
2022/08/01 04:41:01;;;;;;;10.57;5.05;;;;;;;;;;10054883;28;20185;-68
2022/08/01 04:46:08;;;;;;;8.13;4.28;;;;;;;;;;10062783;28;20051;-68
2022/08/01 04:51:11;;;;;;;13.82;4.85;;;;;;;;;;10047073;28;20478;-68
2022/08/01 04:56:07;;;;;;;7.63;3.90;;;;;;;;;;10059633;28;20047;-68
2022/08/01 05:01:03;;;;;;;5.85;3.05;;;;;;;;;;10038913;28;20067;-68
2022/08/01 05:06:00;;;;;;;5.43;3.03;;;;;;;;;;10040267;28;20051;-68
2022/08/01 05:10:56;;;;;;;3.60;2.25;;;;;;;;;;10038471;28;20239;-68
2022/08/01 05:15:52;;;;;;;6.85;1.73;;;;;;;;;;10060999;28;20513;-68
2022/08/01 05:20:49;;;;;;;4.18;1.50;;;;;;;;;;10076763;28;20062;-68
2022/08/01 05:25:45;;;;;;;3.90;1.40;;;;;;;;;;10076447;28;20043;-68
2022/08/01 05:30:54;;;;;;;2.55;1.23;;;;;;;;;;10054187;28;20049;-68
2022/08/01 05:35:51;;;;;;;4.88;1.67;;;;;;;;;;10058758;28;20047;-68
2022/08/01 05:40:47;;;;;;;3.20;1.25;;;;;;;;;;10039667;28;20532;-68
2022/08/01 05:45:44;;;;;;;3.10;1.50;;;;;;;;;;10057679;28;20071;-68
2022/08/01 05:50:40;;;;;;;3.70;1.40;;;;;;;;;;10091200;28;20126;-68
2022/08/01 05:55:37;;;;;;;3.65;1.70;;;;;;;;;;10058630;28;20102;-68
2022/08/01 06:00:33;;;;;;;6.47;1.88;;;;;;;;;;10036954;28;20071;-67
2022/08/01 06:05:29;;;;;;;5.00;1.52;;;;;;;;;;10055541;28;20071;-68
2022/08/01 06:10:25;;;;;;;9.18;2.95;;;;;;;;;;10074348;28;20067;-68
2022/08/01 06:15:22;;;;;;;8.27;2.28;;;;;;;;;;10053764;28;20086;-68
2022/08/01 06:20:18;;;;;;;4.00;1.55;;;;;;;;;;10074611;28;20084;-68
2022/08/01 06:25:14;;;;;;;5.13;1.60;;;;;;;;;;10074343;28;20113;-68
2022/08/01 06:30:16;;;;;;;6.15;1.90;;;;;;;;;;10039444;28;20075;-68
2022/08/01 06:35:12;;;;;;;11.07;2.33;;;;;;;;;;10047551;28;20051;-68
2022/08/01 06:40:09;;;;;;;7.63;2.13;;;;;;;;;;10036085;28;20082;-68
2022/08/01 06:45:13;;;;;;;10.75;4.13;;;;;;;;;;10054006;28;20089;-68
2022/08/01 06:50:10;;;;;;;9.50;3.53;;;;;;;;;;10082359;28;20070;-68
2022/08/01 06:55:07;;;;;;;8.80;4.30;;;;;;;;;;10074377;28;20106;-68
2022/08/01 07:00:07;;;;;;;10.10;4.38;;;;;;;;;;10082045;28;20079;-68
2022/08/01 07:05:04;;;;;;;7.90;4.03;;;;;;;;;;10060994;28;20102;-68
2022/08/01 07:10:00;;;;;;;11.32;4.88;;;;;;;;;;10072206;28;20056;-68
2022/08/01 07:14:57;;;;;;;12.65;5.75;;;;;;;;;;10056918;28;20505;-68
2022/08/01 07:19:54;;;;;;;11.90;4.45;;;;;;;;;;10057272;28;20122;-68
2022/08/01 07:24:53;;;;;;;10.10;4.15;;;;;;;;;;10056136;28;20074;-68
2022/08/01 07:29:50;;;;;;;7.68;2.92;;;;;;;;;;10042618;28;20130;-68
2022/08/01 07:34:46;;;;;;;10.10;3.75;;;;;;;;;;10053942;28;20708;-67
2022/08/01 07:39:42;;;;;;;13.32;5.72;;;;;;;;;;10041730;28;20043;-67
2022/08/01 07:44:39;;;;;;;11.82;4.68;;;;;;;;;;10050186;28;20564;-67
2022/08/01 07:49:35;;;;;;;11.70;4.53;;;;;;;;;;10080186;28;20497;-66
2022/08/01 07:54:35;;;;;;;12.40;4.20;;;;;;;;;;10079040;28;20472;-66
2022/08/01 07:59:32;;;;;;;11.55;4.15;;;;;;;;;;10079447;28;20051;-67
2022/08/01 08:04:28;;;;;;;9.23;3.50;;;;;;;;;;10070127;28;20153;-68
2022/08/01 08:09:26;;;;;;;16.92;3.60;;;;;;;;;;10079558;28;20130;-68
2022/08/01 08:14:23;;;;;;;11.98;3.08;;;;;;;;;;10053167;28;20047;-68
2022/08/01 08:19:28;;;;;;;14.32;3.45;;;;;;;;;;10068442;28;20053;-68
2022/08/01 08:24:34;;;;;;;10.80;2.40;;;;;;;;;;10051606;28;20486;-68
2022/08/01 08:29:32;;;;;;;8.90;2.83;;;;;;;;;;10051142;28;20040;-68
2022/08/01 08:34:28;;;;;;;10.38;2.33;;;;;;;;;;10049944;28;20054;-68
2022/08/01 08:39:25;;;;;;;8.55;2.03;;;;;;;;;;10078472;28;20043;-68
2022/08/01 08:44:21;;;;;;;8.73;1.88;;;;;;;;;;10069268;28;20083;-68
2022/08/01 08:49:19;;;;;;;10.80;2.47;;;;;;;;;;10039255;28;20071;-69
2022/08/01 08:54:17;;;;;;;10.88;2.55;;;;;;;;;;10048867;28;20078;-68
2022/08/01 08:59:14;;;;;;;8.15;2.25;;;;;;;;;;10078000;28;20239;-68
2022/08/01 09:04:10;;;;;;;5.88;2.40;;;;;;;;;;10072851;28;20528;-68
2022/08/01 09:09:08;;;;;;;11.48;2.33;;;;;;;;;;10075032;28;20074;-68
2022/08/01 09:14:11;;;;;;;11.98;2.42;;;;;;;;;;10057506;28;20051;-68
2022/08/01 09:19:12;;;;;;;14.30;2.97;;;;;;;;;;10076849;28;20073;-68
2022/08/01 09:24:15;;;;;;;10.85;2.00;;;;;;;;;;10054745;28;20058;-68
2022/08/01 09:29:18;;;;;;;9.65;1.70;;;;;;;;;;10075606;28;20055;-68
2022/08/01 09:34:40;;;;;;;10.52;2.08;;;;;;;;;;10345264;27;20701;-68
2022/08/01 09:39:39;;;;;;;9.13;2.28;;;;;;;;;;10349958;28;20040;-68
2022/08/01 09:44:40;;;;;;;11.63;1.95;;;;;;;;;;10318188;28;20080;-68
2022/08/01 09:49:40;;;;;;;9.57;2.25;;;;;;;;;;10339512;28;20041;-69
2022/08/01 09:54:52;;;;;;;8.73;1.80;;;;;;;;;;10322540;28;20048;-68
2022/08/01 09:59:51;;;;;;;7.40;2.20;;;;;;;;;;10330811;28;20060;-68
2022/08/01 10:04:56;;;;;;;11.05;2.60;;;;;;;;;;10324271;28;20058;-68
2022/08/01 10:10:12;;;;;;;9.63;2.95;;;;;;;;;;10348076;28;20045;-68
2022/08/01 10:15:10;;;;;;;7.60;1.90;;;;;;;;;;10344048;28;20056;-68
2022/08/01 10:20:07;;;;;;;7.95;2.13;;;;;;;;;;10307464;28;20080;-68
2022/08/01 10:25:27;;;;;;;9.10;2.47;;;;;;;;;;10325189;28;20119;-66
2022/08/01 10:30:41;;;;;;;10.38;2.65;;;;;;;;;;10348592;28;20529;-66
2022/08/01 10:35:39;;;;;;;11.85;2.88;;;;;;;;;;10337650;28;20041;-68
2022/08/01 10:40:44;;;;;;;9.95;3.00;;;;;;;;;;10348182;28;20044;-68
2022/08/01 10:45:42;;;;;;;16.92;3.92;;;;;;;;;;10308074;28;20533;-68
2022/08/01 10:50:46;;;;;;;7.75;3.00;;;;;;;;;;10318945;28;20059;-68
2022/08/01 10:55:48;;;;;;;14.23;3.97;;;;;;;;;;10319450;28;20420;-68
2022/08/01 11:00:44;;;;;;;10.82;4.03;;;;;;;;;;10312132;28;20418;-68
2022/08/01 11:05:42;;;;;;;12.10;3.78;;;;;;;;;;10299991;28;20040;-68
2022/08/01 11:10:44;;;;;;;8.52;2.80;;;;;;;;;;10307581;28;20041;-68
2022/08/01 11:15:41;;;;;;;9.77;2.72;;;;;;;;;;10300154;28;20041;-68
2022/08/01 11:20:57;;;;;;;6.57;2.97;;;;;;;;;;10298467;28;20069;-65
2022/08/01 11:26:14;;;;;;;11.70;3.08;;;;;;;;;;10303945;28;20140;-68
2022/08/01 11:31:14;;;;;;;7.20;2.80;;;;;;;;;;10293843;28;20503;-68
2022/08/01 11:36:10;;;;;;;10.32;3.30;;;;;;;;;;10303332;28;20517;-65
2022/08/01 11:41:13;;;;;;;14.07;3.08;;;;;;;;;;10283862;28;20094;-65
2022/08/01 11:46:09;;;;;;;7.30;2.63;;;;;;;;;;10299274;28;20056;-66
2022/08/01 11:51:21;;;;;;;7.40;3.17;;;;;;;;;;10277580;28;20141;-65
2022/08/01 11:56:22;;;;;;;6.03;2.53;;;;;;;;;;10278907;28;20053;-66
2022/08/01 12:01:24;;;;;;;14.52;3.70;;;;;;;;;;10276411;28;20468;-66
2022/08/01 12:06:28;;;;;;;9.73;2.72;;;;;;;;;;10302549;28;20053;-68
2022/08/01 12:11:25;;;;;;;8.45;2.70;;;;;;;;;;10302970;28;20041;-68
2022/08/01 12:16:33;;;;;;;7.43;2.33;;;;;;;;;;10304154;28;20049;-68
2022/08/01 12:21:30;;;;;;;12.75;2.65;;;;;;;;;;10296927;28;20414;-68
2022/08/01 12:26:42;;;;;;;8.88;2.50;;;;;;;;;;10303138;28;20091;-68
2022/08/01 12:31:39;;;;;;;8.10;2.80;;;;;;;;;;10276016;28;20534;-68
2022/08/01 12:36:36;;;;;;;6.32;2.67;;;;;;;;;;10296721;28;20149;-68
2022/08/01 12:41:32;;;;;;;11.48;3.22;;;;;;;;;;10274241;28;20048;-68
2022/08/01 12:46:29;;;;;;;9.70;3.45;;;;;;;;;;10301971;28;20068;-68
2022/08/01 12:51:25;;;;;;;5.10;2.85;;;;;;;;;;10315258;28;20103;-68
2022/08/01 12:56:30;;;;;;;8.10;3.83;;;;;;;;;;10291329;28;20140;-66
2022/08/01 13:01:26;;;;;;;7.82;3.22;;;;;;;;;;10275125;28;20045;-66
2022/08/01 13:06:23;;;;;;;6.80;2.90;;;;;;;;;;10300166;28;20052;-66
2022/08/01 13:11:20;;;;;;;6.28;3.50;;;;;;;;;;10314627;28;20127;-66
2022/08/01 13:16:17;;;;;;;7.88;4.28;;;;;;;;;;10300991;28;20505;-65
2022/08/01 13:21:34;;;;;;;6.55;3.50;;;;;;;;;;10313327;28;20056;-66
2022/08/01 13:26:51;;;;;;;6.50;3.00;;;;;;;;;;10314343;28;20052;-66
2022/08/01 13:31:47;;;;;;;9.90;3.30;;;;;;;;;;10313302;28;20071;-65
2022/08/01 13:36:44;;;;;;;10.40;3.35;;;;;;;;;;10314314;28;20429;-65
2022/08/01 13:41:45;;;;;;;8.23;3.28;;;;;;;;;;10292196;28;20495;-66
2022/08/01 13:46:43;;;;;;;10.85;3.53;;;;;;;;;;10303206;28;20064;-65
2022/08/01 13:51:46;;;;;;;10.85;4.18;;;;;;;;;;10279746;28;20072;-65
2022/08/01 13:56:42;;;;;;;7.40;3.78;;;;;;;;;;10296768;28;20087;-68
2022/08/01 14:01:38;;;;;;;6.03;3.28;;;;;;;;;;10273608;28;20608;-68
2022/08/01 14:06:35;;;;;;;11.30;4.07;;;;;;;;;;10295786;28;20147;-68
2022/08/01 14:11:31;;;;;;;5.18;3.00;;;;;;;;;;10273399;28;20068;-68
2022/08/01 14:16:32;;;;;;;4.97;3.37;;;;;;;;;;10300781;28;20543;-68
2022/08/01 14:21:29;;;;;;;9.05;3.30;;;;;;;;;;10321846;28;20062;-68
2022/08/01 14:26:25;;;;;;;11.23;4.50;;;;;;;;;;10319341;28;20144;-68
2022/08/01 14:31:21;;;;;;;7.53;3.60;;;;;;;;;;10321150;28;20049;-68
2022/08/01 14:36:17;;;;;;;9.18;3.17;;;;;;;;;;10318498;28;20044;-68
2022/08/01 14:41:27;;;;;;;10.90;4.43;;;;;;;;;;10320972;28;20593;-68
2022/08/01 14:46:23;;;;;;;7.05;3.65;;;;;;;;;;10312913;28;20045;-66
2022/08/01 14:51:19;;;;;;;6.57;3.40;;;;;;;;;;10319535;28;20055;-66
2022/08/01 14:56:17;;;;;;;11.98;3.88;;;;;;;;;;10319613;28;20071;-68
2022/08/01 15:01:13;;;;;;;12.07;5.20;;;;;;;;;;10318694;28;20123;-68
2022/08/01 15:06:12;;;;;;;7.28;3.63;;;;;;;;;;10319304;28;20052;-68
2022/08/01 15:11:08;;;;;;;9.75;3.38;;;;;;;;;;10318687;28;20076;-67
2022/08/01 15:16:05;;;;;;;6.38;2.80;;;;;;;;;;10318633;28;20044;-67
2022/08/01 15:21:02;;;;;;;11.02;4.40;;;;;;;;;;10318408;28;20124;-67
2022/08/01 15:25:59;;;;;;;12.82;3.85;;;;;;;;;;10318864;28;20088;-67
2022/08/01 15:30:55;;;;;;;11.98;3.72;;;;;;;;;;10288850;28;20102;-67
2022/08/01 15:35:52;;;;;;;7.18;3.53;;;;;;;;;;10300986;28;20067;-68
2022/08/01 15:40:48;;;;;;;7.15;3.45;;;;;;;;;;10317662;28;20064;-67
2022/08/01 15:45:45;;;;;;;10.73;3.55;;;;;;;;;;10317572;28;20072;-67
2022/08/01 15:50:43;;;;;;;8.80;3.25;;;;;;;;;;10277738;28;20407;-67
2022/08/01 15:55:40;;;;;;;8.68;4.10;;;;;;;;;;10296792;28;20115;-67
2022/08/01 16:00:36;;;;;;;8.55;4.03;;;;;;;;;;10317706;28;20036;-67
2022/08/01 16:05:35;;;;;;;5.97;2.80;;;;;;;;;;10314279;28;20037;-68
2022/08/01 16:10:39;;;;;;;7.05;3.22;;;;;;;;;;10277234;28;20041;-68
2022/08/01 16:15:35;;;;;;;8.30;3.90;;;;;;;;;;10285616;28;20442;-68
2022/08/01 16:20:33;;;;;;;7.20;3.63;;;;;;;;;;10276299;28;20076;-68
2022/08/01 16:25:29;;;;;;;7.70;3.42;;;;;;;;;;10295977;28;20071;-68
2022/08/01 16:30:26;;;;;;;10.65;3.78;;;;;;;;;;10316231;28;20123;-68
2022/08/01 16:35:24;;;;;;;10.07;4.25;;;;;;;;;;10314690;28;20052;-68
2022/08/01 16:40:33;;;;;;;9.88;3.97;;;;;;;;;;10315920;28;20047;-67
2022/08/01 16:45:42;;;;;;;12.95;3.72;;;;;;;;;;10297199;28;20094;-68
2022/08/01 16:50:38;;;;;;;8.52;5.18;;;;;;;;;;10295817;28;20431;-68
2022/08/01 16:55:36;;;;;;;9.65;4.30;;;;;;;;;;10295755;28;20409;-68
2022/08/01 17:00:45;;;;;;;7.75;3.33;;;;;;;;;;10314148;28;20045;-68
2022/08/01 17:05:52;;;;;;;7.20;3.70;;;;;;;;;;10314744;28;20067;-67
2022/08/01 17:10:48;;;;;;;9.55;4.78;;;;;;;;;;10314242;28;20079;-67
2022/08/01 17:15:46;;;;;;;13.30;3.88;;;;;;;;;;10314812;28;20044;-67
2022/08/01 17:20:45;;;;;;;9.48;3.63;;;;;;;;;;10313781;28;20190;-68
2022/08/01 17:25:43;;;;;;;9.02;4.18;;;;;;;;;;10300330;28;20502;-68
2022/08/01 17:30:40;;;;;;;13.50;3.67;;;;;;;;;;10273723;28;20135;-67
2022/08/01 17:35:36;;;;;;;9.10;3.55;;;;;;;;;;10289422;28;20068;-66
2022/08/01 17:40:33;;;;;;;11.93;3.72;;;;;;;;;;10308065;28;20044;-66
2022/08/01 17:45:36;;;;;;;10.80;3.17;;;;;;;;;;10305231;28;20131;-66
2022/08/01 17:50:47;;;;;;;9.38;3.10;;;;;;;;;;10291339;28;20052;-67
2022/08/01 17:55:43;;;;;;;6.32;2.67;;;;;;;;;;10307098;28;20080;-67
2022/08/01 18:00:52;;;;;;;10.35;3.05;;;;;;;;;;10306898;28;20061;-67
2022/08/01 18:05:48;;;;;;;9.63;3.63;;;;;;;;;;10315694;28;20044;-66
2022/08/01 18:10:48;;;;;;;8.90;2.92;;;;;;;;;;10306109;28;20044;-66
2022/08/01 18:15:45;;;;;;;9.82;2.65;;;;;;;;;;10305039;28;20087;-67
2022/08/01 18:20:46;;;;;;;11.57;3.50;;;;;;;;;;10314530;28;20071;-67
2022/08/01 18:25:42;;;;;;;8.65;2.75;;;;;;;;;;10309927;28;20037;-68
2022/08/01 18:30:38;;;;;;;9.43;2.45;;;;;;;;;;10304919;28;20041;-67
2022/08/01 18:35:35;;;;;;;6.65;1.98;;;;;;;;;;10295018;28;20135;-67
2022/08/01 18:40:48;;;;;;;8.50;2.17;;;;;;;;;;10300321;28;20559;-68
2022/08/01 18:45:45;;;;;;;6.82;2.28;;;;;;;;;;10314160;28;20538;-68
2022/08/01 18:50:41;;;;;;;7.90;2.00;;;;;;;;;;10300426;28;20514;-67
2022/08/01 18:55:37;;;;;;;12.10;2.65;;;;;;;;;;10291284;28;20586;-67
2022/08/01 19:00:34;;;;;;;10.25;1.70;;;;;;;;;;10298931;28;20149;-67
2022/08/01 19:05:30;;;;;;;8.60;2.00;;;;;;;;;;10300467;28;20522;-67
2022/08/01 19:10:31;;;;;;;10.60;2.92;;;;;;;;;;10282017;28;20083;-67
2022/08/01 19:15:27;;;;;;;6.05;1.88;;;;;;;;;;10290060;28;20052;-67
2022/08/01 19:20:23;;;;;;;13.75;4.47;;;;;;;;;;10285303;28;20075;-67
2022/08/01 19:25:20;;;;;;;10.77;2.80;;;;;;;;;;10294572;28;20091;-67
2022/08/01 19:30:17;;;;;;;12.93;2.85;;;;;;;;;;10291834;28;20482;-67
2022/08/01 19:35:15;;;;;;;10.57;3.38;;;;;;;;;;10307415;28;20068;-67
2022/08/01 19:40:12;;;;;;;7.88;2.00;;;;;;;;;;10299929;28;20079;-67
2022/08/01 19:45:27;;;;;;;13.07;3.45;;;;;;;;;;10298863;28;20386;-66
2022/08/01 19:50:27;;;;;;;7.38;1.52;;;;;;;;;;10290673;28;20563;-67
2022/08/01 19:55:25;;;;;;;9.65;2.08;;;;;;;;;;10289827;28;20098;-67
2022/08/01 20:00:22;;;;;;;11.18;2.30;;;;;;;;;;10305119;28;20072;-68
2022/08/01 20:05:24;;;;;;;12.52;2.80;;;;;;;;;;10280182;28;20048;-66
2022/08/01 20:10:21;;;;;;;8.27;2.08;;;;;;;;;;10291178;28;21472;-68
2022/08/01 20:15:18;;;;;;;8.35;1.92;;;;;;;;;;10290391;28;20139;-69
2022/08/01 20:20:14;;;;;;;9.40;2.20;;;;;;;;;;10293363;28;20102;-68
2022/08/01 20:25:11;;;;;;;9.45;3.28;;;;;;;;;;10294001;28;20057;-68
2022/08/01 20:30:08;;;;;;;9.10;2.65;;;;;;;;;;10292287;28;20534;-68
2022/08/01 20:35:05;;;;;;;13.18;4.18;;;;;;;;;;10290605;28;20037;-67
2022/08/01 20:40:01;;;;;;;8.32;2.30;;;;;;;;;;10291408;28;20062;-68
2022/08/01 20:45:00;;;;;;;8.45;1.98;;;;;;;;;;10293604;28;20048;-68
2022/08/01 20:51:13;;;;;;;9.27;2.15;;;;;;;;;;10291876;28;20135;-68
2022/08/01 20:55:43;;;;;;;9.48;1.80;;;;;;;;;;10293354;28;20415;-68
2022/08/01 21:00:40;;;;;;;6.03;1.33;;;;;;;;;;10299891;28;20102;-68
2022/08/01 21:05:40;;;;;;;7.35;2.33;;;;;;;;;;10295814;28;20106;-68
2022/08/01 21:10:55;;;;;;;12.75;3.67;;;;;;;;;;10295972;28;20040;-68
2022/08/01 21:15:56;;;;;;;9.25;3.10;;;;;;;;;;10297143;28;20125;-68
2022/08/01 21:21:14;;;;;;;12.02;2.92;;;;;;;;;;10308205;28;20135;-68
2022/08/01 21:26:11;;;;;;;7.65;1.70;;;;;;;;;;10309241;28;20079;-65
2022/08/01 21:31:08;;;;;;;13.00;2.47;;;;;;;;;;10297851;28;20158;-66
2022/08/01 21:36:07;;;;;;;8.55;3.00;;;;;;;;;;10293789;28;20056;-66
2022/08/01 21:41:05;;;;;;;10.73;2.13;;;;;;;;;;10293017;28;20102;-67
2022/08/01 21:46:02;;;;;;;7.60;2.15;;;;;;;;;;10303314;28;20047;-67
2022/08/01 21:51:08;;;;;;;7.75;1.88;;;;;;;;;;10295724;28;20048;-67
2022/08/01 21:56:05;;;;;;;5.63;1.80;;;;;;;;;;10293520;28;20072;-67
2022/08/01 22:01:16;;;;;;;12.55;2.17;;;;;;;;;;10300012;28;20566;-67
2022/08/01 22:06:14;;;;;;;8.32;1.52;;;;;;;;;;10294131;28;20044;-66
2022/08/01 22:11:12;;;;;;;14.48;2.03;;;;;;;;;;10290199;28;20045;-66
2022/08/01 22:16:11;;;;;;;7.07;1.55;;;;;;;;;;10292348;28;20045;-67
2022/08/01 22:21:08;;;;;;;9.20;2.38;;;;;;;;;;10297567;28;20068;-67
2022/08/01 22:26:05;;;;;;;9.38;1.58;;;;;;;;;;10288382;28;20073;-69
2022/08/01 22:31:02;;;;;;;5.82;1.17;;;;;;;;;;10300120;28;20110;-69
2022/08/01 22:35:59;;;;;;;7.68;1.80;;;;;;;;;;10285223;28;20568;-66
2022/08/01 22:41:00;;;;;;;10.00;1.63;;;;;;;;;;10298550;28;20102;-66
2022/08/01 22:46:05;;;;;;;10.30;2.05;;;;;;;;;;10291148;28;20503;-66
2022/08/01 22:51:08;;;;;;;8.38;1.45;;;;;;;;;;10303598;28;20164;-66
2022/08/01 22:56:07;;;;;;;7.55;1.30;;;;;;;;;;10298367;28;20125;-66
2022/08/01 23:01:05;;;;;;;8.75;1.73;;;;;;;;;;10290359;28;20127;-66
2022/08/01 23:06:03;;;;;;;5.18;1.10;;;;;;;;;;10303845;28;20075;-66
2022/08/01 23:11:02;;;;;;;6.15;1.67;;;;;;;;;;10298337;28;20140;-67
2022/08/01 23:15:59;;;;;;;7.97;1.63;;;;;;;;;;10294023;28;20127;-69
2022/08/01 23:20:56;;;;;;;8.70;1.83;;;;;;;;;;10300723;28;20068;-69
2022/08/01 23:25:52;;;;;;;6.88;1.58;;;;;;;;;;10301529;28;20046;-69
2022/08/01 23:30:49;;;;;;;7.82;1.60;;;;;;;;;;10301776;28;20048;-67
2022/08/01 23:35:45;;;;;;;10.73;2.63;;;;;;;;;;10300254;28;20123;-68
2022/08/01 23:40:42;;;;;;;5.85;1.42;;;;;;;;;;10302841;28;20053;-69
2022/08/01 23:45:38;;;;;;;8.20;1.95;;;;;;;;;;10310677;28;20457;-69
2022/08/01 23:50:54;;;;;;;5.30;1.17;;;;;;;;;;10308932;28;20490;-67
2022/08/01 23:55:52;;;;;;;8.57;2.22;;;;;;;;;;10286784;28;20481;-67
